Time;durP1;ratioP1;P1;durP2;ratioP2;P2;SDS_P1;SDS_P2;PMS_P1;PMS_P2;Temp;Humidity;BMP_temperature;BMP_pressure;BME280_temperature;BME280_humidity;BME280_pressure;Samples;Min_cycle;Max_cycle;Signal;HPM_P1;HPM_P2
2022/01/20 00:01:45;;;;;;;36.72;7.10;;;;;;;;;;5029026;28;20040;-59
2022/01/20 00:04:17;;;;;;;39.95;6.82;;;;;;;;;;5031982;28;20025;-59
2022/01/20 00:07:19;;;;;;;36.00;6.85;;;;;;;;;;5028745;28;20021;-59
2022/01/20 00:26:12;;;;;;;42.60;6.07;;;;;;;;;;5029298;28;20025;-60
2022/01/20 00:28:50;;;;;;;39.03;6.30;;;;;;;;;;5027098;28;20029;-60
2022/01/20 00:31:40;;;;;;;44.92;6.75;;;;;;;;;;5027776;28;20041;-60
2022/01/20 00:34:19;;;;;;;40.60;5.95;;;;;;;;;;5028494;28;20051;-59
2022/01/20 00:39:30;;;;;;;38.13;6.40;;;;;;;;;;5028373;28;20032;-59
2022/01/20 00:41:56;;;;;;;36.00;6.15;;;;;;;;;;5030998;28;20017;-59
2022/01/20 00:44:23;;;;;;;46.92;6.93;;;;;;;;;;5030259;28;20193;-59
2022/01/20 00:46:49;;;;;;;41.67;5.75;;;;;;;;;;5027524;28;20044;-60
2022/01/20 00:49:15;;;;;;;39.85;6.60;;;;;;;;;;5022673;28;20272;-59
2022/01/20 00:51:42;;;;;;;37.15;5.03;;;;;;;;;;5028702;28;20032;-60
2022/01/20 00:54:08;;;;;;;40.20;6.03;;;;;;;;;;5008465;28;20026;-59
2022/01/20 00:56:34;;;;;;;37.70;6.00;;;;;;;;;;5028709;28;20025;-60
2022/01/20 00:59:00;;;;;;;39.33;5.35;;;;;;;;;;5027847;28;20025;-59
2022/01/20 01:01:26;;;;;;;34.03;5.55;;;;;;;;;;5024960;28;20029;-59
2022/01/20 01:03:52;;;;;;;34.03;5.70;;;;;;;;;;5027480;28;20029;-59
2022/01/20 01:08:47;;;;;;;36.88;5.60;;;;;;;;;;5029278;28;20037;-60
2022/01/20 01:11:13;;;;;;;34.63;5.72;;;;;;;;;;5024894;28;20047;-60
2022/01/20 01:13:39;;;;;;;35.92;5.20;;;;;;;;;;5025210;28;20044;-59
2022/01/20 01:16:08;;;;;;;34.80;5.15;;;;;;;;;;5026906;28;20033;-59
2022/01/20 01:21:40;;;;;;;35.90;5.65;;;;;;;;;;5027897;28;20032;-59
2022/01/20 01:24:06;;;;;;;43.05;5.32;;;;;;;;;;5026433;28;20127;-59
2022/01/20 01:26:33;;;;;;;31.90;4.18;;;;;;;;;;5027110;28;20111;-59
2022/01/20 01:29:00;;;;;;;37.40;4.65;;;;;;;;;;5027822;28;20025;-59
2022/01/20 01:31:33;;;;;;;24.45;5.50;;;;;;;;;;5027408;28;20037;-59
2022/01/20 01:34:06;;;;;;;35.90;5.10;;;;;;;;;;5025264;28;20113;-59
2022/01/20 01:36:47;;;;;;;29.98;5.18;;;;;;;;;;5027135;28;20488;-61
2022/01/20 01:39:13;;;;;;;39.88;4.82;;;;;;;;;;5030605;28;20108;-60
2022/01/20 01:41:40;;;;;;;35.53;5.28;;;;;;;;;;5028170;28;20045;-59
2022/01/20 01:44:08;;;;;;;29.40;4.78;;;;;;;;;;5028616;28;20033;-59
2022/01/20 01:46:35;;;;;;;28.08;4.60;;;;;;;;;;5026101;28;20509;-60
2022/01/20 01:49:01;;;;;;;34.80;4.68;;;;;;;;;;5030561;28;20036;-60
2022/01/20 01:51:27;;;;;;;25.40;4.82;;;;;;;;;;5023790;28;20033;-59
2022/01/20 01:53:53;;;;;;;28.95;4.90;;;;;;;;;;5024793;28;20806;-59
2022/01/20 01:56:19;;;;;;;38.03;5.03;;;;;;;;;;5028707;28;20021;-59
2022/01/20 01:58:45;;;;;;;28.02;4.22;;;;;;;;;;5026619;28;20014;-60
2022/01/20 02:01:11;;;;;;;28.35;5.03;;;;;;;;;;5026093;28;20056;-59
2022/01/20 02:03:57;;;;;;;27.60;4.40;;;;;;;;;;5026709;28;20052;-59
2022/01/20 02:09:01;;;;;;;22.30;3.97;;;;;;;;;;5023149;28;20029;-60
2022/01/20 02:19:49;;;;;;;23.08;3.55;;;;;;;;;;5031608;28;20036;-59
2022/01/20 02:22:15;;;;;;;24.02;4.13;;;;;;;;;;5031261;28;20047;-60
2022/01/20 02:24:41;;;;;;;35.95;5.10;;;;;;;;;;5032810;28;20021;-59
2022/01/20 02:27:07;;;;;;;26.05;4.20;;;;;;;;;;5032288;28;20040;-60
2022/01/20 02:29:33;;;;;;;27.25;3.75;;;;;;;;;;5034319;28;20445;-59
2022/01/20 02:31:59;;;;;;;31.30;4.25;;;;;;;;;;5030642;28;20033;-59
2022/01/20 02:34:28;;;;;;;28.38;4.10;;;;;;;;;;5030250;28;20033;-60
2022/01/20 02:36:56;;;;;;;29.42;4.18;;;;;;;;;;5028980;28;20100;-59
2022/01/20 02:39:59;;;;;;;29.25;4.63;;;;;;;;;;5026600;28;20422;-60
2022/01/20 02:45:03;;;;;;;20.30;3.65;;;;;;;;;;5032666;28;20162;-60
2022/01/20 02:47:31;;;;;;;32.25;4.07;;;;;;;;;;5025062;28;20045;-59
2022/01/20 02:49:57;;;;;;;26.48;4.13;;;;;;;;;;5028270;28;20033;-60
2022/01/20 02:52:25;;;;;;;29.73;3.50;;;;;;;;;;5028299;28;20060;-59
2022/01/20 02:54:54;;;;;;;21.50;3.97;;;;;;;;;;5032398;28;20543;-59
2022/01/20 02:57:20;;;;;;;20.63;4.40;;;;;;;;;;5028065;28;20112;-60
2022/01/20 02:59:46;;;;;;;24.25;4.22;;;;;;;;;;5030595;28;20109;-59
2022/01/20 03:02:12;;;;;;;17.10;3.30;;;;;;;;;;5029188;28;20139;-59
2022/01/20 03:04:39;;;;;;;19.85;3.58;;;;;;;;;;5028498;28;20057;-60
2022/01/20 03:07:05;;;;;;;25.90;3.85;;;;;;;;;;5029057;28;20467;-59
2022/01/20 03:09:31;;;;;;;25.73;3.60;;;;;;;;;;5030543;28;20114;-59
2022/01/20 03:11:58;;;;;;;22.27;3.72;;;;;;;;;;5029769;28;20112;-60
2022/01/20 03:14:23;;;;;;;23.70;3.15;;;;;;;;;;5031477;28;20043;-59
2022/01/20 03:16:50;;;;;;;34.88;4.18;;;;;;;;;;5027144;28;20038;-59
2022/01/20 03:19:16;;;;;;;18.02;3.40;;;;;;;;;;5026825;28;20488;-60
2022/01/20 03:21:43;;;;;;;20.98;3.55;;;;;;;;;;5025775;28;20549;-59
2022/01/20 03:24:09;;;;;;;29.05;3.47;;;;;;;;;;5029007;28;20576;-59
2022/01/20 03:26:35;;;;;;;26.80;3.88;;;;;;;;;;5029319;28;20037;-59
2022/01/20 03:29:02;;;;;;;28.55;3.35;;;;;;;;;;5028798;28;20029;-60
2022/01/20 03:31:30;;;;;;;26.50;3.20;;;;;;;;;;5022849;28;20035;-59
2022/01/20 03:33:56;;;;;;;26.58;3.47;;;;;;;;;;5026922;28;20577;-59
2022/01/20 03:36:22;;;;;;;25.25;3.63;;;;;;;;;;5031050;28;20017;-60
2022/01/20 03:38:48;;;;;;;16.65;3.15;;;;;;;;;;5029533;28;20096;-59
2022/01/20 03:41:14;;;;;;;20.25;3.47;;;;;;;;;;5028026;28;20162;-59
2022/01/20 03:43:40;;;;;;;24.15;3.17;;;;;;;;;;5025746;28;20041;-59
2022/01/20 03:46:12;;;;;;;16.10;3.78;;;;;;;;;;5028641;28;20034;-59
2022/01/20 03:48:48;;;;;;;23.77;3.15;;;;;;;;;;5030018;28;20497;-59
2022/01/20 03:51:14;;;;;;;15.23;2.60;;;;;;;;;;5027310;28;20036;-59
2022/01/20 03:53:40;;;;;;;16.58;2.58;;;;;;;;;;5030390;28;20033;-59
2022/01/20 03:56:07;;;;;;;17.02;3.17;;;;;;;;;;5027717;28;20030;-59
2022/01/20 03:58:33;;;;;;;17.05;3.30;;;;;;;;;;5028981;28;20028;-59
2022/01/20 04:00:59;;;;;;;21.88;2.85;;;;;;;;;;5028518;28;20087;-59
2022/01/20 04:03:25;;;;;;;15.63;2.60;;;;;;;;;;5027686;28;20037;-59
2022/01/20 04:05:56;;;;;;;22.85;3.15;;;;;;;;;;5025986;28;20045;-59
2022/01/20 04:08:42;;;;;;;14.02;3.03;;;;;;;;;;5025430;28;20061;-59
2022/01/20 04:11:09;;;;;;;14.13;2.50;;;;;;;;;;5030499;28;20123;-59
2022/01/20 04:13:36;;;;;;;14.60;2.45;;;;;;;;;;5026502;28;20025;-60
2022/01/20 04:16:13;;;;;;;17.73;3.00;;;;;;;;;;5030969;28;20025;-60
2022/01/20 04:18:52;;;;;;;19.10;3.03;;;;;;;;;;5029912;28;20021;-60
2022/01/20 04:21:22;;;;;;;19.38;3.10;;;;;;;;;;5030625;28;20021;-59
2022/01/20 04:23:48;;;;;;;18.33;3.17;;;;;;;;;;5029552;28;20392;-59
2022/01/20 04:26:14;;;;;;;21.10;3.28;;;;;;;;;;5029674;28;20407;-59
2022/01/20 04:28:40;;;;;;;23.35;3.67;;;;;;;;;;5025670;28;20036;-58
2022/01/20 04:31:06;;;;;;;19.73;3.75;;;;;;;;;;5029232;28;20060;-59
2022/01/20 04:33:32;;;;;;;20.23;4.50;;;;;;;;;;5027923;28;20152;-59
2022/01/20 04:35:59;;;;;;;18.10;2.88;;;;;;;;;;5029253;28;20032;-59
2022/01/20 04:38:25;;;;;;;22.23;3.60;;;;;;;;;;5027749;28;20026;-59
2022/01/20 04:40:51;;;;;;;23.75;3.38;;;;;;;;;;5025096;28;20033;-58
2022/01/20 04:43:18;;;;;;;18.30;3.13;;;;;;;;;;5026363;28;20049;-60
2022/01/20 04:45:51;;;;;;;18.00;2.88;;;;;;;;;;5026318;28;20055;-60
2022/01/20 04:48:43;;;;;;;19.85;3.35;;;;;;;;;;5027275;28;20026;-58
2022/01/20 04:59:24;;;;;;;22.55;3.42;;;;;;;;;;5029902;28;20092;-60
2022/01/20 05:01:50;;;;;;;19.85;3.13;;;;;;;;;;5024073;28;20516;-59
2022/01/20 05:04:16;;;;;;;24.30;3.25;;;;;;;;;;5030455;28;20186;-59
2022/01/20 05:06:44;;;;;;;23.10;2.88;;;;;;;;;;5028004;28;20035;-59
2022/01/20 05:09:16;;;;;;;24.30;3.05;;;;;;;;;;5028592;28;20152;-59
2022/01/20 05:11:46;;;;;;;23.10;3.55;;;;;;;;;;5027381;28;20033;-59
2022/01/20 05:14:12;;;;;;;18.75;3.78;;;;;;;;;;5025190;28;20776;-60
2022/01/20 05:16:38;;;;;;;20.20;3.35;;;;;;;;;;5025358;28;20025;-59
2022/01/20 05:19:04;;;;;;;11.30;2.50;;;;;;;;;;5026924;28;20035;-58
2022/01/20 05:21:30;;;;;;;16.60;2.95;;;;;;;;;;5026397;28;20017;-59
2022/01/20 05:23:56;;;;;;;14.30;2.63;;;;;;;;;;5027121;28;20029;-60
2022/01/20 05:26:22;;;;;;;25.50;3.30;;;;;;;;;;5027504;28;20705;-59
2022/01/20 05:28:48;;;;;;;20.35;2.67;;;;;;;;;;5027855;28;20424;-59
2022/01/20 05:31:14;;;;;;;15.90;2.70;;;;;;;;;;5027727;28;20034;-59
2022/01/20 05:33:40;;;;;;;21.13;3.10;;;;;;;;;;5026900;28;20075;-58
2022/01/20 05:36:06;;;;;;;24.02;4.10;;;;;;;;;;5027336;28;20259;-58
2022/01/20 05:38:32;;;;;;;15.88;2.92;;;;;;;;;;5027409;28;20034;-59
2022/01/20 05:40:58;;;;;;;23.27;3.58;;;;;;;;;;5027910;28;20573;-59
2022/01/20 05:43:24;;;;;;;21.15;3.10;;;;;;;;;;5027283;28;20029;-58
2022/01/20 05:45:50;;;;;;;10.35;1.88;;;;;;;;;;5025722;28;20088;-59
2022/01/20 05:48:20;;;;;;;10.15;2.13;;;;;;;;;;5025746;28;20441;-59
2022/01/20 05:50:46;;;;;;;12.13;2.30;;;;;;;;;;5030714;28;20025;-59
2022/01/20 05:53:12;;;;;;;10.13;2.13;;;;;;;;;;5028606;28;20033;-58
2022/01/20 05:55:39;;;;;;;16.42;3.25;;;;;;;;;;5031919;28;20030;-59
2022/01/20 05:58:06;;;;;;;13.27;2.15;;;;;;;;;;5029365;28;20036;-59
2022/01/20 06:00:32;;;;;;;16.58;2.40;;;;;;;;;;5032685;28;20112;-58
2022/01/20 06:05:43;;;;;;;19.50;2.53;;;;;;;;;;5032076;28;20045;-58
2022/01/20 06:08:09;;;;;;;18.45;2.88;;;;;;;;;;5029491;28;20583;-59
2022/01/20 06:10:35;;;;;;;24.08;3.47;;;;;;;;;;5031688;28;20028;-59
2022/01/20 06:13:01;;;;;;;15.13;2.80;;;;;;;;;;5029048;28;20035;-59
2022/01/20 06:15:27;;;;;;;16.63;2.88;;;;;;;;;;5028838;28;20028;-59
2022/01/20 06:17:53;;;;;;;15.70;3.25;;;;;;;;;;5030834;28;20116;-59
2022/01/20 06:20:19;;;;;;;16.33;3.20;;;;;;;;;;5029930;28;20518;-59
2022/01/20 06:22:45;;;;;;;23.48;3.67;;;;;;;;;;5028004;28;20195;-58
2022/01/20 06:25:11;;;;;;;19.15;2.90;;;;;;;;;;5032552;28;20131;-59
2022/01/20 06:27:37;;;;;;;19.63;3.10;;;;;;;;;;5027289;28;20151;-59
2022/01/20 06:30:05;;;;;;;14.88;3.40;;;;;;;;;;5032103;28;20046;-59
2022/01/20 06:32:31;;;;;;;23.17;3.63;;;;;;;;;;5025542;28;20130;-59
2022/01/20 06:34:57;;;;;;;15.35;3.17;;;;;;;;;;5030450;28;20029;-58
2022/01/20 06:37:23;;;;;;;26.52;3.72;;;;;;;;;;5030083;28;20040;-60
2022/01/20 06:39:49;;;;;;;19.80;2.90;;;;;;;;;;5031895;28;20189;-60
2022/01/20 06:42:15;;;;;;;24.23;3.13;;;;;;;;;;5029818;28;20052;-59
2022/01/20 06:44:42;;;;;;;19.00;3.33;;;;;;;;;;5026191;28;20033;-59
2022/01/20 06:47:09;;;;;;;23.77;3.15;;;;;;;;;;5027599;28;20481;-60
2022/01/20 06:49:35;;;;;;;19.10;3.00;;;;;;;;;;5029471;28;20032;-59
2022/01/20 06:52:01;;;;;;;14.25;2.60;;;;;;;;;;5022752;28;20124;-58
2022/01/20 06:54:27;;;;;;;12.48;2.83;;;;;;;;;;5031114;28;20061;-58
2022/01/20 06:56:53;;;;;;;17.63;3.03;;;;;;;;;;5029403;28;20029;-59
2022/01/20 06:59:19;;;;;;;16.95;2.65;;;;;;;;;;5029613;28;20433;-59
2022/01/20 07:01:46;;;;;;;14.30;2.42;;;;;;;;;;5028525;28;20014;-59
2022/01/20 07:04:13;;;;;;;18.30;2.55;;;;;;;;;;5028030;28;20504;-60
2022/01/20 07:06:40;;;;;;;13.23;2.42;;;;;;;;;;5033054;28;20038;-59
2022/01/20 07:09:10;;;;;;;22.63;3.17;;;;;;;;;;5032118;28;20098;-59
2022/01/20 07:11:37;;;;;;;18.50;2.78;;;;;;;;;;5030375;28;20040;-59
2022/01/20 07:14:03;;;;;;;22.27;3.20;;;;;;;;;;5029041;28;20032;-60
2022/01/20 07:16:29;;;;;;;22.67;3.10;;;;;;;;;;5030133;28;20723;-60
2022/01/20 07:18:56;;;;;;;17.60;2.85;;;;;;;;;;5028128;28;20575;-59
2022/01/20 07:21:22;;;;;;;21.25;3.03;;;;;;;;;;5026905;28;20025;-58
2022/01/20 07:23:48;;;;;;;21.75;3.10;;;;;;;;;;5027464;28;20055;-59
2022/01/20 07:26:14;;;;;;;17.42;2.72;;;;;;;;;;5027004;28;20372;-59
2022/01/20 07:28:40;;;;;;;19.63;3.75;;;;;;;;;;5029156;28;20032;-59
2022/01/20 07:31:07;;;;;;;17.80;2.97;;;;;;;;;;5030162;28;20032;-59
2022/01/20 07:33:33;;;;;;;19.20;3.15;;;;;;;;;;5029766;28;20186;-59
2022/01/20 07:35:59;;;;;;;21.70;3.40;;;;;;;;;;5030037;28;20105;-60
2022/01/20 07:38:25;;;;;;;20.33;2.97;;;;;;;;;;5028750;28;20120;-59
2022/01/20 07:40:51;;;;;;;20.35;2.92;;;;;;;;;;5026917;28;20199;-58
2022/01/20 07:43:17;;;;;;;18.63;3.00;;;;;;;;;;5023950;28;20309;-59
2022/01/20 07:45:44;;;;;;;21.20;3.22;;;;;;;;;;5026466;28;20026;-60
2022/01/20 07:48:10;;;;;;;25.98;3.22;;;;;;;;;;5028514;28;20086;-59
2022/01/20 07:50:36;;;;;;;22.17;3.53;;;;;;;;;;5027911;28;20358;-60
2022/01/20 07:53:02;;;;;;;16.05;2.88;;;;;;;;;;5028423;28;20025;-59
2022/01/20 07:55:28;;;;;;;19.77;4.20;;;;;;;;;;5028737;28;20037;-59
2022/01/20 07:57:54;;;;;;;18.83;3.40;;;;;;;;;;5024467;28;20073;-60
2022/01/20 08:00:21;;;;;;;16.73;2.88;;;;;;;;;;5022631;28;20068;-59
2022/01/20 08:02:47;;;;;;;17.83;3.33;;;;;;;;;;5026211;28;20386;-59
2022/01/20 08:05:13;;;;;;;23.42;3.53;;;;;;;;;;5027561;28;20025;-61
2022/01/20 08:07:39;;;;;;;16.65;2.70;;;;;;;;;;5027022;28;20471;-60
2022/01/20 08:10:06;;;;;;;14.70;3.05;;;;;;;;;;5028490;28;20392;-60
2022/01/20 08:12:32;;;;;;;14.32;2.88;;;;;;;;;;5027875;28;20029;-60
2022/01/20 08:14:59;;;;;;;17.65;2.35;;;;;;;;;;5027822;28;20402;-59
2022/01/20 08:17:26;;;;;;;16.75;3.50;;;;;;;;;;5025575;28;20393;-59
2022/01/20 08:19:53;;;;;;;21.90;2.65;;;;;;;;;;5028430;28;20026;-59
2022/01/20 08:22:19;;;;;;;13.13;2.55;;;;;;;;;;5029451;28;20485;-60
2022/01/20 08:24:51;;;;;;;16.05;1.92;;;;;;;;;;5028872;28;20039;-60
2022/01/20 08:27:17;;;;;;;8.50;1.63;;;;;;;;;;5026065;28;20044;-60
2022/01/20 08:29:44;;;;;;;16.58;2.13;;;;;;;;;;5029379;28;20037;-59
2022/01/20 08:32:09;;;;;;;10.30;1.67;;;;;;;;;;5027215;28;20740;-60
2022/01/20 08:34:35;;;;;;;11.88;2.40;;;;;;;;;;5028811;28;20017;-58
2022/01/20 08:37:01;;;;;;;20.38;1.95;;;;;;;;;;5030210;28;20096;-60
2022/01/20 08:41:57;;;;;;;12.30;1.95;;;;;;;;;;5028696;28;20032;-59
2022/01/20 08:44:23;;;;;;;14.45;2.28;;;;;;;;;;5026585;28;20497;-58
2022/01/20 08:46:49;;;;;;;16.65;1.98;;;;;;;;;;5029024;28;20526;-59
2022/01/20 08:49:15;;;;;;;11.27;1.85;;;;;;;;;;5025949;28;20593;-60
2022/01/20 08:51:41;;;;;;;13.68;1.73;;;;;;;;;;5021542;28;20385;-60
2022/01/20 08:54:07;;;;;;;15.40;2.53;;;;;;;;;;5021975;28;20033;-58
2022/01/20 08:56:34;;;;;;;9.57;1.92;;;;;;;;;;5020891;28;20050;-60
2022/01/20 08:59:01;;;;;;;8.88;1.55;;;;;;;;;;5020888;28;20529;-60
2022/01/20 09:01:28;;;;;;;8.70;1.55;;;;;;;;;;5021734;28;20037;-61
2022/01/20 09:03:54;;;;;;;11.20;1.70;;;;;;;;;;5023105;28;20021;-60
2022/01/20 09:06:20;;;;;;;17.90;2.08;;;;;;;;;;5021485;28;20440;-60
2022/01/20 09:08:47;;;;;;;11.30;1.50;;;;;;;;;;5024474;28;21318;-60
2022/01/20 09:11:22;;;;;;;14.48;1.70;;;;;;;;;;5027233;28;20567;-60
2022/01/20 09:16:34;;;;;;;9.10;1.80;;;;;;;;;;5019566;28;20032;-60
2022/01/20 09:19:00;;;;;;;17.75;2.45;;;;;;;;;;5025538;28;20129;-59
2022/01/20 09:21:28;;;;;;;8.88;1.55;;;;;;;;;;5021640;28;20057;-60
2022/01/20 09:23:54;;;;;;;11.38;2.05;;;;;;;;;;5021776;28;20029;-59
2022/01/20 09:26:20;;;;;;;9.52;1.75;;;;;;;;;;5018095;28;20038;-59
2022/01/20 09:28:46;;;;;;;5.72;1.80;;;;;;;;;;5025977;28;20700;-60
2022/01/20 09:31:12;;;;;;;9.35;1.90;;;;;;;;;;5024477;28;20104;-60
2022/01/20 09:33:39;;;;;;;11.30;1.73;;;;;;;;;;5029098;28;20034;-60
2022/01/20 09:36:10;;;;;;;14.85;1.88;;;;;;;;;;5019128;28;20028;-60
2022/01/20 09:38:37;;;;;;;10.30;1.75;;;;;;;;;;5030185;28;20465;-60
2022/01/20 09:41:04;;;;;;;17.30;2.80;;;;;;;;;;5028677;28;20816;-60
2022/01/20 09:43:30;;;;;;;10.30;2.05;;;;;;;;;;5029274;28;20021;-59
2022/01/20 09:45:56;;;;;;;9.00;1.83;;;;;;;;;;5029760;28;20036;-60
2022/01/20 09:48:23;;;;;;;13.65;2.72;;;;;;;;;;5025836;28;20548;-60
2022/01/20 09:50:50;;;;;;;9.65;1.90;;;;;;;;;;5030306;28;20556;-60
2022/01/20 09:53:16;;;;;;;18.17;2.63;;;;;;;;;;5030356;28;20528;-61
2022/01/20 09:55:42;;;;;;;16.20;2.38;;;;;;;;;;5026944;28;20119;-60
2022/01/20 09:58:08;;;;;;;11.35;2.35;;;;;;;;;;5030508;28;20025;-60
2022/01/20 10:00:35;;;;;;;17.20;2.10;;;;;;;;;;5030947;28;20166;-60
2022/01/20 10:03:06;;;;;;;14.73;1.98;;;;;;;;;;5026359;28;20033;-60
2022/01/20 10:05:33;;;;;;;13.88;2.15;;;;;;;;;;5031627;28;20237;-60
2022/01/20 10:08:01;;;;;;;19.45;2.55;;;;;;;;;;5032798;28;20025;-59
2022/01/20 10:10:36;;;;;;;14.10;2.22;;;;;;;;;;5029602;28;20025;-60
2022/01/20 10:13:06;;;;;;;12.90;2.10;;;;;;;;;;5033008;28;20075;-59
2022/01/20 10:15:32;;;;;;;12.10;2.38;;;;;;;;;;5030343;28;20586;-59
2022/01/20 10:18:08;;;;;;;10.02;1.50;;;;;;;;;;5029101;28;20021;-60
2022/01/20 10:20:34;;;;;;;7.70;1.40;;;;;;;;;;5024468;28;20556;-60
2022/01/20 10:23:00;;;;;;;15.98;2.25;;;;;;;;;;5026142;28;20041;-60
2022/01/20 10:25:26;;;;;;;10.13;1.60;;;;;;;;;;5024053;28;20665;-59
2022/01/20 10:27:54;;;;;;;13.63;2.08;;;;;;;;;;5018428;28;20837;-60
2022/01/20 10:30:20;;;;;;;12.43;2.40;;;;;;;;;;5030776;28;20165;-59
2022/01/20 10:32:48;;;;;;;12.48;2.15;;;;;;;;;;5026774;28;20685;-60
2022/01/20 10:35:15;;;;;;;14.23;2.15;;;;;;;;;;5029042;28;20033;-60
2022/01/20 10:37:43;;;;;;;9.57;1.80;;;;;;;;;;5031177;28;20107;-59
2022/01/20 10:40:09;;;;;;;15.98;2.35;;;;;;;;;;5028871;28;20134;-60
2022/01/20 10:42:36;;;;;;;12.07;2.08;;;;;;;;;;5026091;28;20044;-60
2022/01/20 10:45:02;;;;;;;14.93;2.30;;;;;;;;;;5030317;28;20060;-60
2022/01/20 10:47:29;;;;;;;14.13;2.25;;;;;;;;;;5027945;28;20030;-60
2022/01/20 10:49:56;;;;;;;17.48;2.28;;;;;;;;;;5030242;28;20033;-60
2022/01/20 10:52:24;;;;;;;14.77;2.60;;;;;;;;;;5026911;28;20697;-60
2022/01/20 10:54:51;;;;;;;15.15;2.50;;;;;;;;;;5023804;28;20049;-60
2022/01/20 10:57:17;;;;;;;12.63;2.53;;;;;;;;;;5029900;28;20264;-60
2022/01/20 10:59:53;;;;;;;13.35;2.90;;;;;;;;;;5027049;28;20267;-60
2022/01/20 11:02:21;;;;;;;15.80;2.47;;;;;;;;;;5026996;28;20662;-60
2022/01/20 11:04:48;;;;;;;12.43;2.35;;;;;;;;;;5027257;28;20033;-60
2022/01/20 11:07:14;;;;;;;14.43;3.05;;;;;;;;;;5031130;28;20637;-60
2022/01/20 11:09:43;;;;;;;13.15;2.58;;;;;;;;;;5028554;28;20080;-60
2022/01/20 11:12:13;;;;;;;14.80;2.92;;;;;;;;;;5029298;28;20461;-59
2022/01/20 11:14:40;;;;;;;12.98;1.80;;;;;;;;;;5025026;28;20512;-59
2022/01/20 11:17:06;;;;;;;13.25;2.42;;;;;;;;;;5024052;28;20315;-60
2022/01/20 11:19:37;;;;;;;11.15;2.33;;;;;;;;;;5028937;28;20103;-60
2022/01/20 11:22:07;;;;;;;7.68;2.00;;;;;;;;;;5021999;28;20032;-60
2022/01/20 11:24:33;;;;;;;12.45;1.80;;;;;;;;;;5024936;28;20025;-60
2022/01/20 11:26:59;;;;;;;10.95;1.90;;;;;;;;;;5029030;28;20038;-60
2022/01/20 11:29:38;;;;;;;17.92;3.00;;;;;;;;;;5026319;28;20106;-60
2022/01/20 11:32:15;;;;;;;17.95;3.13;;;;;;;;;;5027492;28;20036;-61
2022/01/20 11:34:41;;;;;;;11.90;2.90;;;;;;;;;;5028684;28;20040;-60
2022/01/20 11:37:08;;;;;;;16.05;2.63;;;;;;;;;;5028852;28;20036;-60
2022/01/20 11:39:34;;;;;;;13.43;2.88;;;;;;;;;;5025921;28;20037;-60
2022/01/20 11:42:01;;;;;;;10.57;2.22;;;;;;;;;;5029142;28;20025;-60
2022/01/20 11:44:28;;;;;;;10.45;2.25;;;;;;;;;;5025835;28;20040;-60
2022/01/20 11:47:04;;;;;;;14.27;2.50;;;;;;;;;;5025659;28;21014;-60
2022/01/20 11:49:35;;;;;;;15.45;3.00;;;;;;;;;;5021459;28;20037;-59
2022/01/20 11:52:01;;;;;;;14.00;2.30;;;;;;;;;;5025944;28;20604;-60
2022/01/20 11:54:27;;;;;;;18.02;2.33;;;;;;;;;;5028731;28;20036;-60
2022/01/20 11:57:23;;;;;;;10.07;2.88;;;;;;;;;;5025452;28;20045;-60
2022/01/20 11:59:53;;;;;;;13.00;2.00;;;;;;;;;;5022002;28;20060;-60
2022/01/20 12:02:31;;;;;;;14.90;2.58;;;;;;;;;;5029978;28;20107;-59
2022/01/20 12:04:58;;;;;;;12.77;2.30;;;;;;;;;;5029614;28;20302;-61
2022/01/20 12:07:34;;;;;;;13.35;2.35;;;;;;;;;;5030310;28;20115;-60
2022/01/20 12:10:08;;;;;;;12.90;2.45;;;;;;;;;;5030502;28;20025;-60
2022/01/20 12:12:34;;;;;;;12.38;2.10;;;;;;;;;;5018934;28;20081;-60
2022/01/20 12:15:07;;;;;;;23.23;3.17;;;;;;;;;;5028394;28;20029;-59
2022/01/20 12:17:33;;;;;;;20.45;2.97;;;;;;;;;;5027222;28;20029;-59
2022/01/20 12:19:59;;;;;;;16.40;3.00;;;;;;;;;;5025540;28;20115;-61
2022/01/20 12:22:25;;;;;;;20.25;2.70;;;;;;;;;;5023060;28;20041;-60
2022/01/20 12:24:55;;;;;;;16.35;2.50;;;;;;;;;;5027259;28;20361;-60
2022/01/20 12:27:22;;;;;;;16.33;2.80;;;;;;;;;;5028474;28;20040;-60
2022/01/20 12:29:49;;;;;;;18.13;3.28;;;;;;;;;;5026527;28;20108;-60
2022/01/20 12:32:16;;;;;;;15.30;2.80;;;;;;;;;;5026441;28;20029;-60
2022/01/20 12:34:42;;;;;;;17.20;2.60;;;;;;;;;;5026892;28;20032;-59
2022/01/20 12:37:09;;;;;;;14.30;2.22;;;;;;;;;;5027683;28;20065;-61
2022/01/20 12:39:36;;;;;;;14.88;2.63;;;;;;;;;;5027711;28;20039;-60
2022/01/20 12:42:04;;;;;;;19.15;2.78;;;;;;;;;;5025079;28;20030;-60
2022/01/20 12:44:46;;;;;;;17.80;2.90;;;;;;;;;;5027241;28;20659;-60
2022/01/20 12:47:12;;;;;;;15.70;2.55;;;;;;;;;;5026123;28;20033;-61
2022/01/20 12:49:39;;;;;;;16.92;3.13;;;;;;;;;;5027652;28;20075;-60
2022/01/20 12:52:06;;;;;;;16.25;2.88;;;;;;;;;;5025774;28;20029;-61
2022/01/20 12:54:34;;;;;;;23.58;2.95;;;;;;;;;;5026569;28;20152;-60
2022/01/20 12:57:02;;;;;;;18.85;2.20;;;;;;;;;;5028399;28;20448;-61
2022/01/20 12:59:29;;;;;;;15.20;2.83;;;;;;;;;;5029506;28;20040;-60
2022/01/20 13:01:57;;;;;;;7.88;1.10;;;;;;;;;;5027934;28;20059;-60
2022/01/20 13:04:25;;;;;;;9.25;1.50;;;;;;;;;;5027421;28;20029;-59
2022/01/20 13:07:02;;;;;;;6.60;1.42;;;;;;;;;;5027459;28;20140;-59
2022/01/20 13:09:53;;;;;;;10.88;1.98;;;;;;;;;;5028114;28;20112;-59
2022/01/20 13:12:30;;;;;;;13.93;2.75;;;;;;;;;;5028798;28;20504;-59
2022/01/20 13:14:56;;;;;;;7.70;1.63;;;;;;;;;;5024063;28;20381;-60
2022/01/20 13:17:23;;;;;;;13.60;2.17;;;;;;;;;;5025040;28;20032;-60
2022/01/20 13:19:51;;;;;;;12.05;2.08;;;;;;;;;;5025902;28;20045;-60
2022/01/20 13:22:24;;;;;;;13.95;2.55;;;;;;;;;;5025118;28;20429;-60
2022/01/20 13:24:50;;;;;;;11.13;2.17;;;;;;;;;;5022894;28;20033;-59
2022/01/20 13:27:16;;;;;;;12.35;2.20;;;;;;;;;;5023875;28;20397;-60
2022/01/20 13:29:44;;;;;;;16.88;2.08;;;;;;;;;;5028337;28;20115;-59
2022/01/20 13:32:10;;;;;;;11.70;2.05;;;;;;;;;;5025746;28;20036;-60
2022/01/20 13:34:36;;;;;;;9.30;1.95;;;;;;;;;;5026435;28;20504;-60
2022/01/20 13:37:02;;;;;;;10.35;1.55;;;;;;;;;;5022688;28;20183;-59
2022/01/20 13:39:35;;;;;;;8.68;1.23;;;;;;;;;;5023956;28;20037;-60
2022/01/20 13:42:01;;;;;;;;;;;;;;;;;;5025102;28;20469;-59
2022/01/20 13:47:12;;;;;;;10.18;1.58;;;;;;;;;;5019868;28;20045;-60
2022/01/20 13:49:51;;;;;;;7.63;1.38;;;;;;;;;;5026576;28;20037;-60
2022/01/20 13:52:20;;;;;;;8.93;1.85;;;;;;;;;;5026482;28;20273;-60
2022/01/20 13:54:47;;;;;;;7.47;1.20;;;;;;;;;;5026711;28;20383;-60
2022/01/20 13:57:14;;;;;;;11.55;1.73;;;;;;;;;;5030317;28;20025;-60
2022/01/20 13:59:50;;;;;;;5.93;1.35;;;;;;;;;;5027844;28;20500;-60
2022/01/20 14:02:16;;;;;;;8.50;1.42;;;;;;;;;;5025476;28;20590;-60
2022/01/20 14:04:42;;;;;;;7.10;1.52;;;;;;;;;;5026521;28;20048;-60
2022/01/20 14:07:08;;;;;;;5.70;1.35;;;;;;;;;;5026232;28;20035;-60
2022/01/20 14:09:34;;;;;;;7.38;1.33;;;;;;;;;;5026389;28;20040;-61
2022/01/20 14:12:00;;;;;;;9.35;1.23;;;;;;;;;;5026234;28;20033;-61
2022/01/20 14:14:26;;;;;;;11.35;1.60;;;;;;;;;;5031250;28;20217;-60
2022/01/20 14:16:53;;;;;;;13.25;1.92;;;;;;;;;;5027914;28;20021;-60
2022/01/20 14:19:22;;;;;;;10.00;2.75;;;;;;;;;;5031127;28;20288;-60
2022/01/20 14:21:49;;;;;;;13.55;2.65;;;;;;;;;;5028301;28;20032;-61
2022/01/20 14:24:16;;;;;;;15.95;2.65;;;;;;;;;;5029545;28;20030;-60
2022/01/20 14:26:44;;;;;;;11.75;1.63;;;;;;;;;;5028774;28;20037;-61
2022/01/20 14:29:11;;;;;;;15.27;5.22;;;;;;;;;;5022816;28;20505;-60
2022/01/20 14:31:37;;;;;;;19.65;8.20;;;;;;;;;;5029191;28;20033;-60
2022/01/20 14:34:03;;;;;;;11.55;2.97;;;;;;;;;;5028350;28;20504;-60
2022/01/20 14:36:29;;;;;;;15.57;6.35;;;;;;;;;;5031705;28;20435;-61
2022/01/20 14:38:55;;;;;;;16.30;4.20;;;;;;;;;;5028776;28;20030;-60
2022/01/20 14:41:21;;;;;;;16.30;2.55;;;;;;;;;;5024712;28;20493;-61
2022/01/20 14:43:47;;;;;;;9.55;2.90;;;;;;;;;;5027656;28;20029;-60
2022/01/20 14:46:13;;;;;;;17.33;4.80;;;;;;;;;;5029511;28;20048;-60
2022/01/20 14:48:39;;;;;;;11.45;1.80;;;;;;;;;;5029172;28;20171;-60
2022/01/20 14:51:08;;;;;;;12.45;2.70;;;;;;;;;;5034555;28;20029;-61
2022/01/20 14:53:34;;;;;;;11.52;2.05;;;;;;;;;;5030122;28;20544;-60
2022/01/20 14:56:00;;;;;;;9.57;1.90;;;;;;;;;;5030671;28;20021;-60
2022/01/20 14:58:27;;;;;;;15.63;1.88;;;;;;;;;;5029074;28;20128;-60
2022/01/20 15:00:53;;;;;;;12.00;3.10;;;;;;;;;;5027873;28;20025;-60
2022/01/20 15:03:19;;;;;;;11.38;2.30;;;;;;;;;;5027592;28;20491;-60
2022/01/20 15:05:45;;;;;;;12.35;1.80;;;;;;;;;;5030985;28;20496;-60
2022/01/20 15:08:12;;;;;;;12.23;1.95;;;;;;;;;;5028770;28;20037;-60
2022/01/20 15:10:38;;;;;;;11.00;2.30;;;;;;;;;;5029505;28;20042;-60
2022/01/20 15:13:04;;;;;;;13.63;2.50;;;;;;;;;;5031800;28;20029;-60
2022/01/20 15:15:30;;;;;;;13.00;2.00;;;;;;;;;;5030505;28;20567;-60
2022/01/20 15:17:57;;;;;;;18.73;2.35;;;;;;;;;;5027084;28;20029;-60
2022/01/20 15:20:23;;;;;;;11.93;2.15;;;;;;;;;;5029509;28;20090;-61
2022/01/20 15:22:49;;;;;;;16.30;2.17;;;;;;;;;;5027620;28;20069;-60
2022/01/20 15:25:15;;;;;;;13.48;2.00;;;;;;;;;;5026652;28;20030;-60
2022/01/20 15:27:40;;;;;;;16.67;2.30;;;;;;;;;;5029112;28;20021;-61
2022/01/20 15:30:07;;;;;;;11.05;2.42;;;;;;;;;;5029673;28;20389;-60
2022/01/20 15:32:33;;;;;;;15.30;3.15;;;;;;;;;;5024179;28;20020;-60